Terminal Aerodrome Forecast
Issued by NWS

Home | Current Version | Previous Version | Text Only | Print | Product List | Glossary On
Versions: 1 2 3 4 5 6 7 8 9 10 11 12 13 14 15 16 17 18 19 20
000
FTUS42 KKEY 201840 AAA
TAFMTH
TAF AMD
KMTH 201840Z 2019/2118 05012KT P6SM VCSH SCT015 BKN035
      TEMPO 2019/2022 3SM -RA BKN020
     FM210000 06009KT P6SM SCT020=

USA.gov is the U.S. government's official web portal to all federal, state and local government web resources and services.